RESULTATS »

INSCRITS PRESENTATS ACABEN RETIRATS DESQUALIFICATS DIST. TRAM 1 DIST. TRAM 2 DIST. TRAM 3 TEMP. EXT TEMP. AIGUA
211 203 8 0 750 20 5 0 0

CLASSIFICACIÓ

MASCULÍ FEMENÍ CATEGORIES CLUBS (MASCULINA) CLUBS (FEMENINA) INDIVIDUALS GRUPS D'EDAT

LLOCDORSALNOMCLUBCAT.T.META| P.Tram 1 || P.Tram 2 |Km/hTEMPS| P.Tram 3 |PARC_1PARC_2
1 33SARA LOEHR MUÑOZFASTTRIATLON CLUBABF01:06:106300:10:567500:37:0932.3000:48:055100:18:050:00:000:00:00
2 22DOLÇA OLLE GATELLFASTTRIATLON CLUBABF01:06:433500:10:159300:37:4931.7300:48:048800:18:390:00:000:00:00
3 82MERCE TUSELL QUEVEDOC.N. REUS PLOMSABF01:10:5020800:13:1213200:39:0330.7300:52:158500:18:350:00:000:00:00
4 1939MERITXELL VELASCO AYGUASAFASTTRIATLON CLUBJNF01:11:087100:11:0720900:41:1129.1400:52:189500:18:500:00:000:00:00
5 112NURIA PUBILL LLEONARTFASTTRIATLON CLUBABF01:12:164500:10:3223700:41:5128.6700:52:2316000:19:530:00:000:00:00
6 1814LAIA PI BOLTAC.N. CATALUNYASUB23F01:14:088500:11:1921300:41:1729.0700:52:3629000:21:320:00:000:00:00
7 1934KATE KRISTI KIDGERC.N. CATALUNYAABF01:14:1419800:13:0816900:40:0529.9400:53:1325300:21:010:00:000:00:00
8 2000LAIA GALI MONTIELC.T. S.J. ABADESSESABF01:14:1919900:13:0916000:39:4830.1500:52:5727400:21:220:00:000:00:00
9 1824CLAUDIA LUNA BONACHERAC.N. MATAROJNF01:15:0319200:13:0330400:43:5327.3500:56:565500:18:070:00:000:00:00
10 66BARBARA VASSILATOSC.T. S.J. ABADESSESV1F01:16:0319600:13:0622300:41:3028.9200:54:3628200:21:270:00:000:00:00
11 1912MERCE ASENSIO MIGUELC.N. CATALUNYAV1F01:17:1218600:13:0023600:41:5028.6900:54:5033700:22:220:00:000:00:00
12 1815BELÉN SALOMONI SCHWABTRIATLO BCN-TRIFORFUNABF01:18:5616200:12:4332900:44:4126.8600:57:2428800:21:320:00:000:00:00
13 1985LAURA GARCIA VILACLUB NATACIÓ BANYOLESABF01:19:3423300:13:3231800:44:2227.0500:57:5429600:21:400:00:000:00:00
14 1929NEREIDA PUJOL ARIASCLUB ESPORTIU CUBE MANRESABF01:19:5621000:13:1329800:43:4427.4400:56:5736300:22:590:00:000:00:00
15 105CAROLINA JORDI OLANOC.T. S.J. ABADESSESABF01:20:2518200:12:5936800:46:2925.8200:59:2824300:20:570:00:000:00:00
16 119ELENA ALCOVER SAGRERACLUB TRIATLO BLANESV1F01:21:1127300:14:0436200:46:2225.8801:00:2623200:20:450:00:000:00:00
17 104VANESSA JORDI OLANOC.T.S.J. ABADESSESABF01:22:4418700:13:0137000:46:3725.7400:59:3836600:23:060:00:000:00:00
18 1831LAIA SALVADOR LLADOC.N. MATAROV1F01:24:1734100:14:5936000:46:1825.9201:01:1736400:23:000:00:000:00:00
19 100ANNA BUXO CALZADAC.A. XALOCV1F01:27:3040800:16:4332300:44:3726.9001:01:2042900:26:100:00:000:00:00
20 1970NURI LOZADA ESPÍCLUB NATACIO SITGESV1F01:28:5742300:17:3639200:47:4725.1101:05:2338300:23:340:00:000:00:00
21 1956ARANTXA LOPEZ GRAUCLUB ESPAI ESPORT WELLNESABF01:29:3820300:13:1040500:48:5124.5601:02:0143500:27:370:00:000:00:00
22 47LAURA RODRIGUEZ BOTIASCERDANYOLA CHABF01:30:4340900:16:4441100:50:0024.0001:06:4439600:23:590:00:000:00:00
23 1871LAURA ORTIZ MEDINACLUB ESPAI ESPORT WELLNESABF01:33:4543500:19:1641600:50:3323.7401:09:4939500:23:560:00:000:00:00
24 1851MARTA SANCHEZ SALINASCLUB TRIATLO L´EIX DE NAVV1F01:43:1842800:18:0743300:54:3521.9801:12:4244100:30:360:00:000:00:00
25 1922M. ANGELES SALVADOR MALDOCLUB TRIATLO L´EIX DE NAVV1F01:45:3743200:18:5143800:59:2920.1701:18:2043300:27:170:00:000:00:00






FEDERACIÓ CATALANA DE TRIATLÓ
SEU CENTRAL I CORRESPONDÈNCIA: Rambla Guipúscoa 23-25 2on-D · 08018 Barcelona · Tel / Fax : 93 307 93 35
ATENCIÓ AL PÚBLIC: Passeig Joan de Borbó, 93 (Club Natació Barcelona) · 08039 Barcelona · Tel / Fax : 93 307 93 32